Time;durP1;ratioP1;P1;durP2;ratioP2;P2;SDS_P1;SDS_P2;PMS_P1;PMS_P2;Temp;Humidity;BMP_temperature;BMP_pressure;BME280_temperature;BME280_humidity;BME280_pressure;Samples;Min_cycle;Max_cycle;Signal;HPM_P1;HPM_P2
2023/09/02 00:01:03;;;;;;;17.08;16.00;;;20.10;99.90;;;;;;5032315;28;20049;-76
2023/09/02 00:03:29;;;;;;;20.20;19.00;;;20.20;99.90;;;;;;5033145;28;20459;-76
2023/09/02 00:05:55;;;;;;;20.23;18.75;;;20.20;99.90;;;;;;5015086;28;20060;-75
2023/09/02 00:08:21;;;;;;;22.38;20.98;;;20.30;99.90;;;;;;5032951;28;20514;-76
2023/09/02 00:10:47;;;;;;;22.15;20.65;;;20.20;99.90;;;;;;5031728;28;20382;-76
2023/09/02 00:13:13;;;;;;;26.77;25.00;;;20.10;99.90;;;;;;5032999;28;20033;-75
2023/09/02 00:15:41;;;;;;;39.90;37.85;;;20.10;99.90;;;;;;5032397;28;20029;-75
2023/09/02 00:18:07;;;;;;;17.10;16.05;;;20.10;99.90;;;;;;5031585;28;20036;-75
2023/09/02 00:20:33;;;;;;;17.73;16.45;;;20.10;99.90;;;;;;5031635;28;20038;-76
2023/09/02 00:22:59;;;;;;;18.10;16.90;;;20.10;99.90;;;;;;5032503;28;20028;-76
2023/09/02 00:25:26;;;;;;;17.63;16.63;;;20.20;99.90;;;;;;5032423;28;20037;-76
2023/09/02 00:27:52;;;;;;;16.92;15.55;;;20.10;99.90;;;;;;5031428;28;20037;-75
2023/09/02 00:30:19;;;;;;;14.98;13.63;;;19.70;99.90;;;;;;5031820;28;20032;-76
2023/09/02 00:32:45;;;;;;;16.90;15.82;;;19.50;99.90;;;;;;5031332;28;20040;-75
2023/09/02 00:35:11;;;;;;;15.55;14.55;;;19.40;99.90;;;;;;5032335;28;20033;-75
2023/09/02 00:37:37;;;;;;;13.10;12.25;;;19.10;99.90;;;;;;5032385;28;20025;-75
2023/09/02 00:40:04;;;;;;;9.63;8.75;;;19.00;99.90;;;;;;5031280;28;20033;-75
2023/09/02 00:42:30;;;;;;;10.38;7.55;;;19.00;99.90;;;;;;5032391;28;20029;-75
2023/09/02 00:44:56;;;;;;;12.60;11.50;;;19.00;99.90;;;;;;5031226;28;20029;-76
2023/09/02 00:47:22;;;;;;;10.30;9.38;;;19.20;99.90;;;;;;5031802;28;20041;-75
2023/09/02 00:49:49;;;;;;;9.40;8.48;;;19.00;99.90;;;;;;5030913;28;20036;-75
2023/09/02 00:52:15;;;;;;;11.27;10.23;;;18.90;99.90;;;;;;5032081;28;20052;-75
2023/09/02 00:54:41;;;;;;;15.52;14.23;;;19.10;99.90;;;;;;5032339;28;20041;-75
2023/09/02 00:57:07;;;;;;;14.05;13.05;;;19.10;99.90;;;;;;5030963;28;20041;-75
2023/09/02 00:59:33;;;;;;;14.38;13.27;;;19.00;99.90;;;;;;5031273;28;20053;-74
2023/09/02 01:01:59;;;;;;;9.25;8.55;;;19.00;99.90;;;;;;5030448;28;20041;-75
2023/09/02 01:04:27;;;;;;;8.95;8.15;;;18.90;99.90;;;;;;5030783;28;20025;-75
2023/09/02 01:06:55;;;;;;;9.82;8.90;;;19.00;99.90;;;;;;5030777;28;20486;-75
2023/09/02 01:09:21;;;;;;;9.07;8.30;;;19.00;99.90;;;;;;5030682;28;20052;-75
2023/09/02 01:11:48;;;;;;;10.15;9.35;;;19.00;99.90;;;;;;5030786;28;20025;-75
2023/09/02 01:14:14;;;;;;;11.68;10.88;;;18.90;99.90;;;;;;5030919;28;20045;-75
2023/09/02 01:16:40;;;;;;;12.57;11.60;;;19.10;99.90;;;;;;5030232;28;20490;-75
2023/09/02 01:19:08;;;;;;;11.68;10.63;;;19.30;99.90;;;;;;5031928;28;20025;-75
2023/09/02 01:21:53;;;;;;;11.25;10.32;;;19.20;99.90;;;;;;5030628;28;20056;-75
2023/09/02 01:24:44;;;;;;;18.10;16.90;;;19.20;99.90;;;;;;5032073;28;20490;-75
2023/09/02 01:27:28;;;;;;;12.68;11.82;;;19.30;99.90;;;;;;5031957;28;20479;-75
2023/09/02 01:29:59;;;;;;;18.23;17.10;;;19.40;99.90;;;;;;5031007;28;20029;-74
2023/09/02 01:32:27;;;;;;;;;;;19.40;99.90;;;;;;5017187;28;20041;-75
2023/09/02 01:34:53;;;;;;;17.70;16.38;;;19.50;99.90;;;;;;5034472;28;20309;-75
2023/09/02 01:37:19;;;;;;;19.85;18.65;;;19.50;99.90;;;;;;5034431;28;20041;-75
2023/09/02 01:39:46;;;;;;;28.67;26.85;;;19.60;99.90;;;;;;5034695;28;20029;-75
2023/09/02 01:42:12;;;;;;;32.20;30.33;;;19.70;99.90;;;;;;5018254;28;20064;-75
2023/09/02 01:44:39;;;;;;;29.73;27.65;;;19.70;99.90;;;;;;5017615;28;20030;-75
2023/09/02 01:47:05;;;;;;;34.20;32.25;;;19.60;99.90;;;;;;5017423;28;20042;-75
2023/09/02 01:49:31;;;;;;;27.88;26.13;;;19.60;99.90;;;;;;5034348;28;20029;-75
2023/09/02 01:51:57;;;;;;;29.50;27.67;;;19.60;99.90;;;;;;5034309;28;20471;-74
2023/09/02 01:54:23;;;;;;;12.45;11.35;;;19.70;99.90;;;;;;5017908;28;20074;-75
2023/09/02 01:56:49;;;;;;;22.33;20.77;;;19.60;99.90;;;;;;5033739;28;20037;-75
2023/09/02 01:59:15;;;;;;;20.38;18.98;;;19.60;99.90;;;;;;5027815;28;20036;-74
2023/09/02 02:01:41;;;;;;;23.17;21.67;;;19.60;99.90;;;;;;5028176;28;20970;-75
2023/09/02 02:04:27;;;;;;;19.98;18.42;;;19.70;99.90;;;;;;5033552;28;20026;-75
2023/09/02 02:06:58;;;;;;;16.33;15.07;;;19.70;99.90;;;;;;5033408;28;20025;-75
2023/09/02 02:09:31;;;;;;;16.55;15.45;;;19.70;99.90;;;;;;5032858;28;20044;-74
2023/09/02 02:11:57;;;;;;;21.48;20.08;;;19.70;99.90;;;;;;5032481;28;20475;-75
2023/09/02 02:14:23;;;;;;;24.55;22.88;;;19.70;99.90;;;;;;5034132;28;20041;-74
2023/09/02 02:16:49;;;;;;;19.25;18.00;;;19.80;99.90;;;;;;5031721;28;20034;-75
2023/09/02 02:19:15;;;;;;;13.10;12.13;;;19.70;99.90;;;;;;5032707;28;20045;-74
2023/09/02 02:21:42;;;;;;;14.30;13.35;;;19.70;99.90;;;;;;5033563;28;20494;-74
2023/09/02 02:24:08;;;;;;;9.80;9.00;;;19.50;99.90;;;;;;5033796;28;20025;-74
2023/09/02 02:26:34;;;;;;;10.55;9.65;;;19.50;99.90;;;;;;5033881;28;20029;-74
2023/09/02 02:29:00;;;;;;;11.13;10.35;;;19.40;99.90;;;;;;5033753;28;20029;-74
2023/09/02 02:31:26;;;;;;;11.60;10.57;;;19.30;99.90;;;;;;5032577;28;20034;-74
2023/09/02 02:33:52;;;;;;;14.35;13.23;;;18.80;99.90;;;;;;5032487;28;20025;-75
2023/09/02 02:36:18;;;;;;;19.27;18.05;;;18.60;99.90;;;;;;5033374;28;20029;-74
2023/09/02 02:38:44;;;;;;;15.50;14.40;;;18.80;99.90;;;;;;5034664;28;20026;-74
2023/09/02 02:41:10;;;;;;;12.98;12.07;;;19.00;99.90;;;;;;5033372;28;20052;-74
2023/09/02 02:43:36;;;;;;;13.52;12.48;;;19.10;99.90;;;;;;5033818;28;20025;-74
2023/09/02 02:46:03;;;;;;;11.85;11.05;;;19.10;99.90;;;;;;5032386;28;20045;-74
2023/09/02 02:48:30;;;;;;;12.85;11.95;;;19.10;99.90;;;;;;5033566;28;20033;-74
2023/09/02 02:50:56;;;;;;;16.02;14.70;;;19.20;99.90;;;;;;5032935;28;20406;-74
2023/09/02 02:53:22;;;;;;;17.75;16.52;;;19.20;99.90;;;;;;5034772;28;20045;-74
2023/09/02 02:55:49;;;;;;;20.73;19.33;;;19.30;99.90;;;;;;5034750;28;20037;-74
2023/09/02 02:58:17;;;;;;;17.38;16.25;;;19.20;99.90;;;;;;5033283;28;20490;-74
2023/09/02 03:00:44;;;;;;;18.67;17.20;;;19.30;99.90;;;;;;5033588;28;20045;-74
2023/09/02 03:03:10;;;;;;;17.52;16.20;;;19.40;99.90;;;;;;5016986;28;20034;-74
2023/09/02 03:05:40;;;;;;;19.30;18.08;;;19.30;99.90;;;;;;5032903;28;20041;-74
2023/09/02 03:08:06;;;;;;;16.45;15.25;;;19.30;99.90;;;;;;5034558;28;20045;-74
2023/09/02 03:10:35;;;;;;;16.00;14.93;;;19.40;99.90;;;;;;5034054;28;20037;-74
2023/09/02 03:13:02;;;;;;;12.48;11.65;;;19.40;99.90;;;;;;5033228;28;20506;-73
2023/09/02 03:15:28;;;;;;;20.27;18.98;;;19.30;99.90;;;;;;5031831;28;20057;-74
2023/09/02 03:17:54;;;;;;;24.63;23.00;;;19.00;99.90;;;;;;5034179;28;20040;-73
2023/09/02 03:20:21;;;;;;;26.58;24.95;;;18.80;99.90;;;;;;5033698;28;20037;-74
2023/09/02 03:22:47;;;;;;;19.38;17.98;;;18.80;99.90;;;;;;5033965;28;20025;-74
2023/09/02 03:25:13;;;;;;;17.83;16.65;;;18.70;99.90;;;;;;5033660;28;20064;-74
2023/09/02 03:27:39;;;;;;;15.10;13.90;;;18.70;99.90;;;;;;5032773;28;20022;-74
2023/09/02 03:30:06;;;;;;;19.85;18.48;;;18.70;99.90;;;;;;5031933;28;20058;-74
2023/09/02 03:32:32;;;;;;;22.73;21.23;;;18.70;99.90;;;;;;5031941;28;20037;-74
2023/09/02 03:34:59;;;;;;;15.98;14.85;;;18.80;99.90;;;;;;5033745;28;20025;-74
2023/09/02 03:37:26;;;;;;;13.43;12.27;;;18.80;99.90;;;;;;5032574;28;20033;-73
2023/09/02 03:39:55;;;;;;;13.55;12.68;;;18.90;99.90;;;;;;5033884;28;20042;-74
2023/09/02 03:42:21;;;;;;;11.32;10.50;;;19.00;99.90;;;;;;5033405;28;20026;-74
2023/09/02 03:44:48;;;;;;;13.23;12.13;;;18.90;99.90;;;;;;5031961;28;20033;-74
2023/09/02 03:47:14;;;;;;;17.38;15.93;;;18.70;99.90;;;;;;5031620;28;20030;-74
2023/09/02 03:49:40;;;;;;;17.27;16.17;;;18.50;99.90;;;;;;5032204;28;20501;-74
2023/09/02 03:52:06;;;;;;;26.15;24.30;;;18.60;99.90;;;;;;5031918;28;20038;-74
2023/09/02 03:54:34;;;;;;;15.07;13.63;;;18.60;99.90;;;;;;5032047;28;20525;-74
2023/09/02 03:57:02;;;;;;;17.92;16.60;;;18.60;99.90;;;;;;5033151;28;20040;-74
2023/09/02 03:59:28;;;;;;;14.88;13.88;;;18.50;99.90;;;;;;5032831;28;20017;-74
2023/09/02 04:01:54;;;;;;;13.45;12.40;;;18.70;99.90;;;;;;5032461;28;20578;-74
2023/09/02 04:04:20;;;;;;;13.25;12.25;;;18.50;99.90;;;;;;5033281;28;20033;-74
2023/09/02 04:06:46;;;;;;;14.13;13.13;;;18.50;99.90;;;;;;5032964;28;20033;-74
2023/09/02 04:09:12;;;;;;;14.52;13.65;;;18.50;99.90;;;;;;5033277;28;20470;-74
2023/09/02 04:11:38;;;;;;;15.65;14.00;;;18.50;99.90;;;;;;5032765;28;20041;-74
2023/09/02 04:14:05;;;;;;;14.50;13.23;;;18.40;99.90;;;;;;5032697;28;20052;-74
2023/09/02 04:16:31;;;;;;;14.57;13.48;;;18.20;99.90;;;;;;5031135;28;20509;-74
2023/09/02 04:19:02;;;;;;;12.80;11.90;;;18.10;99.90;;;;;;5032807;28;20033;-74
2023/09/02 04:21:29;;;;;;;13.05;12.05;;;18.00;99.90;;;;;;5032476;28;20034;-74
2023/09/02 04:23:55;;;;;;;14.95;13.85;;;18.00;99.90;;;;;;5031810;28;20029;-74
2023/09/02 04:26:21;;;;;;;11.63;10.80;;;18.10;99.90;;;;;;5032469;28;20033;-74
2023/09/02 04:28:48;;;;;;;11.23;10.45;;;18.20;99.90;;;;;;5032689;28;20498;-74
2023/09/02 04:31:14;;;;;;;9.50;8.90;;;18.10;99.90;;;;;;5030799;28;20124;-75
2023/09/02 04:33:40;;;;;;;11.43;10.70;;;18.10;99.90;;;;;;5032547;28;20462;-74
2023/09/02 04:36:06;;;;;;;12.52;11.68;;;18.00;99.90;;;;;;5032286;28;20044;-74
2023/09/02 04:38:33;;;;;;;11.98;11.00;;;18.00;99.90;;;;;;5032806;28;20034;-74
2023/09/02 04:41:06;;;;;;;10.68;9.95;;;18.10;99.90;;;;;;5031078;28;20090;-74
2023/09/02 04:43:33;;;;;;;9.95;9.23;;;18.20;99.90;;;;;;5032321;28;20029;-75
2023/09/02 04:46:02;;;;;;;11.48;10.63;;;18.30;99.90;;;;;;5030233;28;20045;-74
2023/09/02 04:48:29;;;;;;;13.23;12.52;;;18.40;99.90;;;;;;5031452;28;20029;-75
2023/09/02 04:50:55;;;;;;;14.13;13.20;;;18.40;99.90;;;;;;5032115;28;20029;-74
2023/09/02 04:53:21;;;;;;;14.07;13.20;;;18.40;99.90;;;;;;5032172;28;20498;-74
2023/09/02 04:55:48;;;;;;;11.52;10.77;;;18.40;99.90;;;;;;5031094;28;20041;-74
2023/09/02 04:58:15;;;;;;;13.95;13.13;;;18.50;99.90;;;;;;5030744;28;20029;-74
2023/09/02 05:00:41;;;;;;;13.57;12.68;;;18.50;99.90;;;;;;5030278;28;20038;-74
2023/09/02 05:03:08;;;;;;;14.60;13.70;;;18.60;99.90;;;;;;5030967;28;20026;-74
2023/09/02 05:05:34;;;;;;;11.98;10.85;;;18.50;99.90;;;;;;5031749;28;20033;-74
2023/09/02 05:08:01;;;;;;;11.20;10.45;;;18.40;99.90;;;;;;5031057;28;20414;-74
2023/09/02 05:10:27;;;;;;;13.15;12.18;;;18.30;99.90;;;;;;5014666;28;20041;-74
2023/09/02 05:12:53;;;;;;;12.27;11.43;;;18.30;99.90;;;;;;5031856;28;20029;-75
2023/09/02 05:15:19;;;;;;;12.60;11.60;;;18.30;99.90;;;;;;5031708;28;20022;-74
2023/09/02 05:17:46;;;;;;;12.70;11.57;;;18.30;99.90;;;;;;5031100;28;20033;-74
2023/09/02 05:20:12;;;;;;;13.43;12.68;;;18.50;99.90;;;;;;5030923;28;20033;-74
2023/09/02 05:22:38;;;;;;;13.80;12.80;;;18.60;99.90;;;;;;5030893;28;20034;-74
2023/09/02 05:25:04;;;;;;;12.57;11.57;;;18.60;99.90;;;;;;5031181;28;20034;-75
2023/09/02 05:27:30;;;;;;;13.40;12.30;;;18.70;99.90;;;;;;5030125;28;20037;-75
2023/09/02 05:29:57;;;;;;;14.48;13.45;;;18.80;99.90;;;;;;5030715;28;20029;-75
2023/09/02 05:32:23;;;;;;;14.52;13.68;;;18.80;99.90;;;;;;5030351;28;20394;-74
2023/09/02 05:34:49;;;;;;;15.05;14.05;;;18.80;99.90;;;;;;5031850;28;20034;-74
2023/09/02 05:37:15;;;;;;;14.50;13.60;;;18.80;99.90;;;;;;5030932;28;20022;-73
2023/09/02 05:39:41;;;;;;;16.95;15.95;;;18.70;99.90;;;;;;5030798;28;20028;-74
2023/09/02 05:42:07;;;;;;;15.00;14.00;;;18.60;99.90;;;;;;5031816;28;20034;-74
2023/09/02 05:44:37;;;;;;;14.52;13.43;;;18.50;99.90;;;;;;5031950;28;20029;-74
2023/09/02 05:47:03;;;;;;;13.63;12.68;;;18.40;99.90;;;;;;5030187;28;20367;-75
2023/09/02 05:49:29;;;;;;;13.52;12.57;;;18.30;99.90;;;;;;5032031;28;20021;-75
2023/09/02 05:51:55;;;;;;;12.50;11.77;;;18.30;99.90;;;;;;5031786;28;20034;-74
2023/09/02 05:54:21;;;;;;;13.98;13.18;;;18.40;99.90;;;;;;5031362;28;20384;-74
2023/09/02 05:56:47;;;;;;;14.02;12.68;;;18.50;99.90;;;;;;5031956;28;20030;-74
2023/09/02 05:59:14;;;;;;;14.65;13.50;;;18.60;99.90;;;;;;5030614;28;20033;-74
2023/09/02 06:01:40;;;;;;;13.20;12.25;;;18.30;99.90;;;;;;5031431;28;20042;-75
2023/09/02 06:04:06;;;;;;;10.77;10.07;;;18.10;99.90;;;;;;5030469;28;20029;-74
2023/09/02 06:06:32;;;;;;;10.88;10.07;;;18.00;99.90;;;;;;5031855;28;20037;-74
2023/09/02 06:08:58;;;;;;;12.18;11.25;;;17.90;99.90;;;;;;5031350;28;20040;-74
2023/09/02 06:11:24;;;;;;;14.50;13.35;;;17.90;99.90;;;;;;5030552;28;20034;-74
2023/09/02 06:13:50;;;;;;;12.80;11.88;;;17.90;99.90;;;;;;5031685;28;20391;-75
2023/09/02 06:16:16;;;;;;;11.48;10.38;;;18.00;99.90;;;;;;5031102;28;20187;-74
2023/09/02 06:18:42;;;;;;;12.98;12.00;;;18.00;99.90;;;;;;5032217;28;20379;-74
2023/09/02 06:21:12;;;;;;;12.65;11.95;;;18.00;99.90;;;;;;5035224;28;20057;-74
2023/09/02 06:23:41;;;;;;;12.27;11.40;;;18.00;99.90;;;;;;5033637;28;20493;-74
2023/09/02 06:26:07;;;;;;;12.50;11.77;;;18.10;99.90;;;;;;5033016;28;20060;-74
2023/09/02 06:28:33;;;;;;;10.88;10.27;;;18.20;99.90;;;;;;5035090;28;20031;-74
2023/09/02 06:31:04;;;;;;;11.27;10.52;;;18.20;99.90;;;;;;5034437;28;20048;-75
2023/09/02 06:33:30;;;;;;;;;;;18.30;99.90;;;;;;5034191;28;20029;-75
2023/09/02 06:35:56;;;;;;;11.02;10.32;;;18.50;99.90;;;;;;5034816;28;20293;-74
2023/09/02 06:38:23;;;;;;;14.02;13.13;;;18.60;99.90;;;;;;5034635;28;20030;-74
2023/09/02 06:40:49;;;;;;;13.73;12.82;;;18.60;99.90;;;;;;5035015;28;20049;-75
2023/09/02 06:43:15;;;;;;;13.90;13.10;;;18.70;99.90;;;;;;5033526;28;20029;-73
2023/09/02 06:45:41;;;;;;;18.98;17.98;;;18.80;99.90;;;;;;5032839;28;20105;-75
2023/09/02 06:48:08;;;;;;;14.68;13.80;;;18.90;99.90;;;;;;5017288;28;20037;-75
2023/09/02 06:50:34;;;;;;;13.25;12.48;;;18.90;99.90;;;;;;5034731;28;20017;-75
2023/09/02 06:53:00;;;;;;;14.88;14.07;;;19.00;99.90;;;;;;5032960;28;20042;-75
2023/09/02 06:55:26;;;;;;;17.80;16.52;;;19.10;99.90;;;;;;5034501;28;20096;-74
2023/09/02 06:57:52;;;;;;;15.10;14.15;;;19.10;99.90;;;;;;5034603;28;20034;-75
2023/09/02 07:00:18;;;;;;;13.90;12.95;;;19.10;99.90;;;;;;5032870;28;20506;-75
2023/09/02 07:02:44;;;;;;;15.02;14.13;;;19.10;99.90;;;;;;5034337;28;20053;-75
2023/09/02 07:05:10;;;;;;;16.15;15.05;;;19.20;99.90;;;;;;5034322;28;20025;-75
2023/09/02 07:07:37;;;;;;;15.98;14.98;;;19.20;99.90;;;;;;5034102;28;20482;-75
2023/09/02 07:10:04;;;;;;;18.70;17.70;;;19.30;99.90;;;;;;5034266;28;20375;-75
2023/09/02 07:12:31;;;;;;;16.10;15.20;;;19.30;99.90;;;;;;5016212;28;20038;-75
2023/09/02 07:14:57;;;;;;;16.63;15.73;;;19.40;99.90;;;;;;5034204;28;20025;-75
2023/09/02 07:17:26;;;;;;;24.17;22.83;;;19.60;99.90;;;;;;5032585;28;20604;-75
2023/09/02 07:19:52;;;;;;;20.75;19.55;;;19.70;99.90;;;;;;5034207;28;20077;-75
2023/09/02 07:22:18;;;;;;;86.63;82.40;;;19.80;99.90;;;;;;5033640;28;20042;-74
2023/09/02 07:24:44;;;;;;;124.93;118.68;;;19.80;99.90;;;;;;5033870;28;20033;-75
2023/09/02 07:27:10;;;;;;;180.50;171.68;;;19.90;99.90;;;;;;5033987;28;20030;-75
2023/09/02 07:29:36;;;;;;;52.20;49.55;;;19.90;99.90;;;;;;5032538;28;20479;-75
2023/09/02 07:32:03;;;;;;;18.70;17.73;;;19.90;99.90;;;;;;5033320;28;20041;-75
2023/09/02 07:34:29;;;;;;;19.35;18.20;;;19.90;99.90;;;;;;5033847;28;20025;-74
2023/09/02 07:36:55;;;;;;;32.28;30.65;;;20.00;99.90;;;;;;5015680;28;20046;-75
2023/09/02 07:39:21;;;;;;;18.80;17.85;;;20.00;99.90;;;;;;5032600;28;20026;-74
2023/09/02 07:41:48;;;;;;;47.63;45.13;;;20.10;99.90;;;;;;5032471;28;20041;-75
2023/09/02 07:44:14;;;;;;;53.30;50.63;;;20.20;99.90;;;;;;5033596;28;20029;-75
2023/09/02 07:46:41;;;;;;;55.72;52.70;;;20.10;99.90;;;;;;5033170;28;20052;-75
2023/09/02 07:49:07;;;;;;;51.67;49.13;;;20.10;99.90;;;;;;5032405;28;20038;-75
2023/09/02 07:51:33;;;;;;;21.15;19.70;;;20.10;99.90;;;;;;5031765;28;20392;-75
2023/09/02 07:53:59;;;;;;;20.65;19.45;;;19.90;99.90;;;;;;5033243;28;20041;-75
2023/09/02 07:56:25;;;;;;;19.23;18.23;;;19.90;99.90;;;;;;5033502;28;20056;-74
2023/09/02 07:58:51;;;;;;;18.10;16.90;;;19.90;99.90;;;;;;5033348;28;20044;-75
2023/09/02 08:01:18;;;;;;;22.10;20.95;;;20.00;99.90;;;;;;5032875;28;20414;-74
2023/09/02 08:03:44;;;;;;;19.88;18.85;;;20.00;99.90;;;;;;5033429;28;20037;-75
2023/09/02 08:06:11;;;;;;;27.00;25.65;;;19.90;99.90;;;;;;5031687;28;20030;-74
2023/09/02 08:08:37;;;;;;;38.35;36.42;;;20.00;99.90;;;;;;5032130;28;20037;-74
2023/09/02 08:11:04;;;;;;;51.42;48.92;;;20.10;99.90;;;;;;5033077;28;20352;-75
2023/09/02 08:13:30;;;;;;;53.90;51.25;;;20.40;99.90;;;;;;5032066;28;20037;-75
2023/09/02 08:15:57;;;;;;;152.27;145.10;;;20.80;99.90;;;;;;5032433;28;20033;-74
2023/09/02 08:18:23;;;;;;;87.50;83.32;;;21.10;99.90;;;;;;5033091;28;20029;-75
2023/09/02 08:20:49;;;;;;;107.82;102.82;;;21.40;99.90;;;;;;5032523;28;20023;-75
2023/09/02 08:23:15;;;;;;;84.95;80.93;;;21.50;99.90;;;;;;5032884;28;20471;-74
2023/09/02 08:25:41;;;;;;;67.93;64.70;;;21.70;99.90;;;;;;5031839;28;20044;-75
2023/09/02 08:28:08;;;;;;;80.22;76.38;;;22.00;99.90;;;;;;5032803;28;20034;-75
2023/09/02 08:30:34;;;;;;;68.70;65.38;;;22.20;99.90;;;;;;5031296;28;20029;-75
2023/09/02 08:33:00;;;;;;;90.35;86.05;;;22.20;99.90;;;;;;5031361;28;20041;-75
2023/09/02 08:35:26;;;;;;;86.60;82.40;;;22.30;99.90;;;;;;5032346;28;20455;-75
2023/09/02 08:37:52;;;;;;;129.57;123.38;;;22.40;99.90;;;;;;5032818;28;20040;-75
2023/09/02 08:40:18;;;;;;;129.07;122.90;;;22.50;99.90;;;;;;5030618;28;20059;-75
2023/09/02 08:42:44;;;;;;;127.68;121.50;;;22.80;99.90;;;;;;5031119;28;20466;-75
2023/09/02 08:45:12;;;;;;;162.73;154.95;;;22.90;99.90;;;;;;5030834;28;20028;-75
2023/09/02 08:47:39;;;;;;;168.18;160.07;;;23.20;99.90;;;;;;5031487;28;20021;-78
2023/09/02 08:50:09;;;;;;;139.20;132.45;;;23.30;99.90;;;;;;5014457;28;20028;-75
2023/09/02 08:52:35;;;;;;;132.50;126.00;;;23.40;99.90;;;;;;5032352;28;20032;-75
2023/09/02 08:55:03;;;;;;;104.32;99.30;;;23.50;99.90;;;;;;5031302;28;20060;-75
2023/09/02 08:57:29;;;;;;;154.73;147.40;;;23.60;99.90;;;;;;5031374;28;20390;-75
2023/09/02 08:59:55;;;;;;;109.75;104.50;;;23.50;99.90;;;;;;5031284;28;20030;-75
2023/09/02 09:02:21;;;;;;;115.72;110.22;;;23.50;99.90;;;;;;5030632;28;20048;-75
2023/09/02 09:04:48;;;;;;;168.50;160.43;;;23.60;99.90;;;;;;5030733;28;20033;-75
2023/09/02 09:07:14;;;;;;;164.15;156.20;;;23.80;99.90;;;;;;5031191;28;20487;-75
2023/09/02 09:09:40;;;;;;;120.82;114.97;;;24.00;99.90;;;;;;5031105;28;20025;-74
2023/09/02 09:12:06;;;;;;;80.25;76.45;;;24.30;99.90;;;;;;5030913;28;20392;-75
2023/09/02 09:14:35;;;;;;;89.57;85.35;;;24.30;99.90;;;;;;5032221;28;20026;-75
2023/09/02 09:17:02;;;;;;;69.18;65.85;;;24.20;99.90;;;;;;5030648;28;20038;-75
2023/09/02 09:19:28;;;;;;;79.53;75.72;;;24.00;99.90;;;;;;5030662;28;20041;-75
2023/09/02 09:21:54;;;;;;;84.65;80.65;;;24.00;99.90;;;;;;5032138;28;20036;-75
2023/09/02 09:24:21;;;;;;;216.90;206.00;;;24.10;99.90;;;;;;5030948;28;20028;-75
2023/09/02 09:26:47;;;;;;;181.13;172.27;;;24.30;99.90;;;;;;5014633;28;20045;-74
2023/09/02 09:29:15;;;;;;;242.95;231.10;;;24.40;99.90;;;;;;5031046;28;20414;-75
2023/09/02 09:31:41;;;;;;;82.25;78.03;;;24.30;99.90;;;;;;5031438;28;20493;-75
2023/09/02 09:34:07;;;;;;;105.05;99.95;;;24.30;99.90;;;;;;5031882;28;20025;-74
2023/09/02 09:36:33;;;;;;;88.90;84.68;;;24.30;99.90;;;;;;5032155;28;20029;-75
2023/09/02 09:39:04;;;;;;;101.55;96.80;;;24.40;99.90;;;;;;5014326;28;20029;-76
2023/09/02 09:41:30;;;;;;;89.38;85.03;;;24.60;99.90;;;;;;5030792;28;20033;-75
2023/09/02 09:44:06;;;;;;;80.88;77.00;;;24.40;99.90;;;;;;5030733;28;20402;-74
2023/09/02 09:46:35;;;;;;;104.15;99.20;;;24.10;99.90;;;;;;5031043;28;20534;-75
2023/09/02 09:49:02;;;;;;;101.65;96.85;;;23.90;99.90;;;;;;5030826;28;20041;-75
2023/09/02 09:51:28;;;;;;;94.55;90.07;;;23.80;99.90;;;;;;5030729;28;20030;-74
2023/09/02 09:53:55;;;;;;;81.40;77.57;;;23.60;99.90;;;;;;5035608;28;20057;-75
2023/09/02 09:56:21;;;;;;;75.47;71.90;;;23.60;99.90;;;;;;5017855;28;20044;-75
2023/09/02 09:58:47;;;;;;;65.95;62.80;;;23.60;99.90;;;;;;5034507;28;20032;-75
2023/09/02 10:01:21;;;;;;;143.57;136.80;;;23.50;99.90;;;;;;5033593;28;20033;-77
2023/09/02 10:03:47;;;;;;;111.13;105.90;;;23.70;99.90;;;;;;5035569;28;20109;-75
2023/09/02 10:06:13;;;;;;;138.02;131.43;;;23.70;99.90;;;;;;5034315;28;20021;-75
2023/09/02 10:08:52;;;;;;;66.53;63.30;;;23.80;99.90;;;;;;5034249;28;20382;-74
2023/09/02 10:11:23;;;;;;;55.88;53.13;;;23.80;99.90;;;;;;5033855;28;20034;-74
2023/09/02 10:13:50;;;;;;;96.78;92.18;;;23.90;99.90;;;;;;5035681;28;20030;-75
2023/09/02 10:16:16;;;;;;;53.15;50.42;;;24.00;99.90;;;;;;5033325;28;20528;-75
2023/09/02 10:18:42;;;;;;;62.08;59.08;;;24.20;99.90;;;;;;5034129;28;20044;-75
2023/09/02 10:21:10;;;;;;;70.85;67.32;;;24.30;99.90;;;;;;5017869;28;20037;-75
2023/09/02 10:23:36;;;;;;;76.28;72.57;;;24.50;99.90;;;;;;5033891;28;20049;-75
2023/09/02 10:26:06;;;;;;;79.65;75.88;;;24.80;99.90;;;;;;5033895;28;20025;-75
2023/09/02 10:28:39;;;;;;;96.88;92.10;;;25.00;99.90;;;;;;5031553;28;20487;-74
2023/09/02 10:31:16;;;;;;;111.45;106.03;;;24.90;99.90;;;;;;5018403;28;20026;-75
2023/09/02 10:33:45;;;;;;;81.57;77.63;;;24.90;99.90;;;;;;5033793;28;20037;-75
2023/09/02 10:36:14;;;;;;;97.47;92.80;;;25.00;99.90;;;;;;5033727;28;20384;-74
2023/09/02 10:38:44;;;;;;;190.02;180.57;;;25.30;99.90;;;;;;5033813;28;20033;-75
2023/09/02 10:41:14;;;;;;;163.43;155.52;;;25.40;99.90;;;;;;5033823;28;20018;-75
2023/09/02 10:43:40;;;;;;;211.17;200.77;;;25.30;99.90;;;;;;5016798;28;20048;-74
2023/09/02 10:46:10;;;;;;;89.03;84.72;;;25.20;99.90;;;;;;5032741;28;20403;-75
2023/09/02 10:48:42;;;;;;;84.63;80.53;;;25.00;99.90;;;;;;5034721;28;20033;-74
2023/09/02 10:51:08;;;;;;;125.13;118.97;;;25.00;99.90;;;;;;5017414;28;20025;-75
2023/09/02 10:53:53;;;;;;;90.70;86.35;;;25.00;99.90;;;;;;5033215;28;20486;-74
2023/09/02 10:56:39;;;;;;;128.43;122.13;;;25.20;99.90;;;;;;5034578;28;20033;-74
2023/09/02 10:59:06;;;;;;;109.45;104.13;;;25.20;99.90;;;;;;5033905;28;20521;-75
2023/09/02 11:01:47;;;;;;;90.55;86.03;;;25.00;99.90;;;;;;5032769;28;20045;-75
2023/09/02 11:04:16;;;;;;;80.88;76.82;;;24.90;99.90;;;;;;5033596;28;20038;-75
2023/09/02 11:07:19;;;;;;;91.43;87.03;;;24.90;99.90;;;;;;5034283;28;20041;-75
2023/09/02 11:09:55;;;;;;;100.65;95.82;;;25.00;99.90;;;;;;5034348;28;20028;-74
2023/09/02 11:12:21;;;;;;;105.47;100.45;;;25.20;99.90;;;;;;5033172;28;20037;-75
2023/09/02 11:15:20;;;;;;;89.63;85.32;;;25.40;99.90;;;;;;5034110;28;20385;-74
2023/09/02 11:17:46;;;;;;;83.63;79.47;;;25.40;99.90;;;;;;4995081;28;20456;-74
2023/09/02 11:20:13;;;;;;;108.50;103.18;;;25.30;99.90;;;;;;4995809;28;20033;-75
2023/09/02 11:23:05;;;;;;;99.43;94.65;;;25.40;99.90;;;;;;5011913;28;20082;-74
2023/09/02 11:25:41;;;;;;;103.07;98.22;;;25.50;99.90;;;;;;5011436;28;20042;-74
2023/09/02 11:28:08;;;;;;;116.10;110.57;;;25.70;99.90;;;;;;4995443;28;20098;-75
2023/09/02 11:30:36;;;;;;;100.00;95.20;;;25.80;99.90;;;;;;4994930;28;20491;-75
2023/09/02 11:33:02;;;;;;;110.85;105.57;;;26.00;99.90;;;;;;4976363;28;20039;-75
2023/09/02 11:35:30;;;;;;;113.88;108.38;;;25.90;99.90;;;;;;4981865;28;20464;-75
2023/09/02 11:37:56;;;;;;;137.82;131.18;;;25.90;99.90;;;;;;4979683;28;20022;-74
2023/09/02 11:40:24;;;;;;;107.10;101.90;;;26.00;99.90;;;;;;4995618;28;20049;-75
2023/09/02 11:43:00;;;;;;;117.97;112.25;;;26.10;99.90;;;;;;4994935;28;20044;-75
2023/09/02 11:45:32;;;;;;;93.85;89.22;;;26.20;99.90;;;;;;4994447;28;20034;-75
2023/09/02 11:47:58;;;;;;;120.00;114.22;;;26.20;99.90;;;;;;4995108;28;20045;-75
2023/09/02 11:50:24;;;;;;;103.78;98.72;;;26.30;99.90;;;;;;4981678;28;20030;-75
2023/09/02 11:52:55;;;;;;;104.93;99.82;;;26.20;99.90;;;;;;5013631;28;20038;-75
2023/09/02 11:55:23;;;;;;;96.45;91.68;;;26.40;99.90;;;;;;5012424;28;20104;-75
2023/09/02 11:57:49;;;;;;;120.97;115.13;;;26.50;99.90;;;;;;5012947;28;20037;-74
2023/09/02 12:00:19;;;;;;;102.40;97.40;;;26.60;99.90;;;;;;5011836;28;20029;-75
2023/09/02 12:02:46;;;;;;;109.03;103.65;;;26.40;99.90;;;;;;5012188;28;20030;-74
2023/09/02 12:05:12;;;;;;;112.45;106.93;;;26.40;99.90;;;;;;5012263;28;20037;-74
2023/09/02 12:07:40;;;;;;;115.15;109.65;;;26.20;99.90;;;;;;5012229;28;20383;-74
2023/09/02 12:10:13;;;;;;;129.90;123.55;;;26.00;99.90;;;;;;5012512;28;20022;-75
2023/09/02 12:12:41;;;;;;;145.18;138.00;;;26.00;99.90;;;;;;5013082;28;20029;-74
2023/09/02 12:15:18;;;;;;;138.60;131.80;;;26.00;99.90;;;;;;5012677;28;20042;-74
2023/09/02 12:17:45;;;;;;;107.28;102.13;;;26.10;99.90;;;;;;5012312;28;20030;-74
2023/09/02 12:20:15;;;;;;;139.38;132.65;;;26.00;99.90;;;;;;5012044;28;20399;-75
2023/09/02 12:22:42;;;;;;;135.18;128.65;;;26.00;99.90;;;;;;5012049;28;20037;-74
2023/09/02 12:25:09;;;;;;;108.93;103.75;;;26.00;99.90;;;;;;5012057;28;20468;-75
2023/09/02 12:27:35;;;;;;;134.95;128.48;;;26.10;99.90;;;;;;5012845;28;20372;-75